Time;durP1;ratioP1;P1;durP2;ratioP2;P2;SDS_P1;SDS_P2;PMS_P1;PMS_P2;Temp;Humidity;BMP_temperature;BMP_pressure;BME280_temperature;BME280_humidity;BME280_pressure;Samples;Min_cycle;Max_cycle;Signal;HPM_P1;HPM_P2
2024/01/31 00:00:33;;;;;;;22.50;4.43;;;;;;;7.23;100.00;103307.91;4923835;28;20044;-75
2024/01/31 00:02:59;;;;;;;16.75;4.53;;;;;;;7.17;100.00;103311.47;4926352;28;20111;-76
2024/01/31 00:05:25;;;;;;;10.27;3.78;;;;;;;7.22;100.00;103320.28;4928597;28;20039;-76
2024/01/31 00:07:50;;;;;;;12.63;4.35;;;;;;;7.18;100.00;103320.34;4925837;28;20047;-76
2024/01/31 00:10:16;;;;;;;12.15;4.85;;;;;;;7.20;100.00;103318.56;4923709;28;20055;-76
2024/01/31 00:12:41;;;;;;;14.68;4.38;;;;;;;7.24;100.00;103322.94;4927826;28;20061;-75
2024/01/31 00:15:07;;;;;;;24.52;6.32;;;;;;;7.19;100.00;103312.38;4924461;28;20032;-76
2024/01/31 00:17:33;;;;;;;24.05;7.28;;;;;;;7.16;100.00;103320.34;4927023;28;20063;-76
2024/01/31 00:19:58;;;;;;;21.60;6.63;;;;;;;7.20;100.00;103318.56;4924750;28;20036;-76
2024/01/31 00:22:24;;;;;;;12.13;5.07;;;;;;;7.29;100.00;103320.25;4924835;28;20564;-76
2024/01/31 00:24:49;;;;;;;19.20;5.85;;;;;;;7.36;100.00;103324.59;4922427;28;20280;-76
2024/01/31 00:27:15;;;;;;;13.50;5.57;;;;;;;7.29;100.00;103326.44;4927921;28;20411;-76
2024/01/31 00:29:40;;;;;;;14.88;6.35;;;;;;;7.27;100.00;103341.47;4927460;28;20044;-76
2024/01/31 00:32:06;;;;;;;14.73;6.60;;;;;;;7.29;100.00;103349.44;4928641;28;20111;-76
2024/01/31 00:34:32;;;;;;;18.92;6.63;;;;;;;7.22;100.00;103338.84;4926895;28;20043;-76
2024/01/31 00:36:58;;;;;;;19.05;7.05;;;;;;;7.31;100.00;103342.31;4925248;28;20119;-78
2024/01/31 00:39:28;;;;;;;23.88;9.15;;;;;;;7.25;100.00;103354.75;4920588;28;20051;-77
2024/01/31 00:41:54;;;;;;;22.05;7.68;;;;;;;7.31;100.00;103356.47;4926510;28;20101;-77
2024/01/31 00:44:20;;;;;;;18.08;6.60;;;;;;;7.24;100.00;103355.66;4925658;28;20036;-77
2024/01/31 00:46:47;;;;;;;15.57;6.82;;;;;;;7.09;100.00;103360.22;4929067;28;20124;-77
2024/01/31 00:49:12;;;;;;;18.90;7.78;;;;;;;7.24;100.00;103362.75;4923910;28;20040;-75
2024/01/31 00:51:42;;;;;;;18.90;6.85;;;;;;;7.31;100.00;103369.75;4923751;28;20491;-75
2024/01/31 00:54:08;;;;;;;21.10;7.07;;;;;;;7.25;100.00;103369.81;4923496;28;20043;-76
2024/01/31 00:56:33;;;;;;;19.00;6.78;;;;;;;7.15;100.00;103369.00;4925937;28;20065;-75
2024/01/31 00:59:00;;;;;;;13.45;6.53;;;;;;;7.15;100.00;103376.09;4919444;28;20052;-77
2024/01/31 01:01:26;;;;;;;15.63;6.68;;;;;;;7.20;100.00;103372.50;4925877;28;20039;-77
2024/01/31 01:03:52;;;;;;;17.40;7.00;;;;;;;7.24;100.00;103378.66;4923854;28;20040;-77
2024/01/31 01:06:17;;;;;;;17.92;6.85;;;;;;;7.23;100.00;103375.13;4924418;28;20036;-77
2024/01/31 01:08:43;;;;;;;19.48;6.97;;;;;;;7.15;100.00;103378.75;4926546;28;20047;-76
2024/01/31 01:11:08;;;;;;;23.90;8.13;;;;;;;7.11;100.00;103377.00;4924467;28;20039;-76
2024/01/31 01:13:34;;;;;;;20.55;8.15;;;;;;;7.04;100.00;103385.91;4940133;28;20043;-76
2024/01/31 01:15:59;;;;;;;23.60;9.18;;;;;;;7.04;100.00;103391.22;4927031;28;20567;-75
2024/01/31 01:18:24;;;;;;;21.20;8.60;;;;;;;7.09;100.00;103392.06;4926450;28;20069;-76
2024/01/31 01:20:50;;;;;;;20.15;7.18;;;;;;;6.90;100.00;103389.53;4925091;28;20554;-75
2024/01/31 01:23:15;;;;;;;21.98;8.50;;;;;;;6.89;100.00;103386.91;4929332;28;20464;-76
2024/01/31 01:25:42;;;;;;;23.33;8.85;;;;;;;6.85;100.00;103396.63;4926646;28;20032;-75
2024/01/31 01:28:07;;;;;;;17.88;7.90;;;;;;;6.88;100.00;103396.63;4925640;28;20250;-75
2024/01/31 01:30:32;;;;;;;17.52;7.85;;;;;;;6.99;100.00;103392.13;4921355;28;20209;-75
2024/01/31 01:32:58;;;;;;;17.80;7.78;;;;;;;6.91;100.00;103391.28;4926923;28;20039;-76
2024/01/31 01:35:24;;;;;;;18.88;7.93;;;;;;;6.79;100.00;103399.34;4927467;28;20456;-75
2024/01/31 01:37:49;;;;;;;21.95;8.00;;;;;;;6.88;100.00;103391.31;4926640;28;20047;-76
2024/01/31 01:40:16;;;;;;;21.65;8.68;;;;;;;6.84;100.00;103391.34;4926041;28;20360;-76
2024/01/31 01:42:42;;;;;;;21.63;8.88;;;;;;;6.97;100.00;103396.53;4948284;28;20032;-75
2024/01/31 01:45:08;;;;;;;15.75;8.13;;;;;;;6.94;100.00;103388.63;4925459;28;20636;-75
2024/01/31 01:47:38;;;;;;;21.27;8.30;;;;;;;7.00;100.00;103388.56;4927615;28;20044;-75
2024/01/31 01:50:04;;;;;;;15.43;8.00;;;;;;;6.96;100.00;103386.81;4920603;28;20040;-76
2024/01/31 01:52:32;;;;;;;18.58;7.10;;;;;;;6.80;100.00;103377.22;4922130;28;20068;-76
2024/01/31 01:55:02;;;;;;;15.35;7.30;;;;;;;6.96;100.00;103388.59;4926873;28;20046;-77
2024/01/31 01:57:29;;;;;;;13.52;7.03;;;;;;;6.95;100.00;103390.38;4924687;28;20598;-75
2024/01/31 01:59:54;;;;;;;20.27;7.55;;;;;;;7.02;100.00;103385.91;4927786;28;20036;-75
2024/01/31 02:02:20;;;;;;;15.45;6.60;;;;;;;7.13;100.00;103380.50;4923786;28;20559;-77
2024/01/31 02:04:47;;;;;;;14.88;6.53;;;;;;;7.11;100.00;103377.00;4924850;28;20040;-77
2024/01/31 02:07:12;;;;;;;10.60;6.18;;;;;;;7.09;100.00;103379.66;4919749;28;20146;-76
2024/01/31 02:09:38;;;;;;;17.63;7.38;;;;;;;7.06;100.00;103373.50;4925075;28;20054;-76
2024/01/31 02:12:04;;;;;;;16.60;7.05;;;;;;;7.14;100.00;103383.16;4928114;28;20031;-76
2024/01/31 02:14:29;;;;;;;14.45;6.13;;;;;;;7.14;100.00;103382.28;4937362;28;21047;-76
2024/01/31 02:16:57;;;;;;;16.10;6.53;;;;;;;7.19;100.00;103369.88;4927887;28;20044;-76
2024/01/31 02:19:23;;;;;;;15.80;5.78;;;;;;;6.98;100.00;103365.63;4926358;28;20050;-75
2024/01/31 02:21:51;;;;;;;14.45;6.65;;;;;;;7.13;100.00;103361.94;4926659;28;20044;-77
2024/01/31 02:24:16;;;;;;;13.43;6.40;;;;;;;7.06;100.00;103358.47;4939928;28;20068;-75
2024/01/31 02:26:42;;;;;;;13.85;5.80;;;;;;;6.95;100.00;103355.91;4927469;28;20348;-77
2024/01/31 02:29:08;;;;;;;14.10;5.50;;;;;;;7.07;100.00;103362.00;4927565;28;20072;-75
2024/01/31 02:31:33;;;;;;;15.00;5.93;;;;;;;7.13;100.00;103357.53;4928572;28;20567;-75
2024/01/31 02:33:58;;;;;;;15.40;5.50;;;;;;;7.08;100.00;103353.13;4927971;28;20042;-75
2024/01/31 02:36:24;;;;;;;13.30;6.03;;;;;;;7.13;100.00;103361.94;4929570;28;20036;-75
2024/01/31 02:38:49;;;;;;;12.93;4.97;;;;;;;7.14;100.00;103359.28;4932468;28;20042;-76
2024/01/31 02:41:15;;;;;;;11.93;5.70;;;;;;;7.17;100.00;103366.31;4927250;28;20072;-78
2024/01/31 02:43:41;;;;;;;22.80;5.95;;;;;;;7.08;100.00;103363.75;4929212;28;20039;-77
2024/01/31 02:46:07;;;;;;;13.13;5.68;;;;;;;7.13;100.00;103362.84;4934243;28;20559;-77
2024/01/31 02:48:32;;;;;;;17.73;6.38;;;;;;;7.17;100.00;103361.91;4924262;28;20044;-75
2024/01/31 02:50:58;;;;;;;13.93;6.25;;;;;;;7.12;100.00;103371.66;4928053;28;20040;-75
2024/01/31 02:53:24;;;;;;;13.35;4.78;;;;;;;7.17;100.00;103368.97;4925672;28;20678;-75
2024/01/31 02:55:49;;;;;;;13.15;4.97;;;;;;;6.98;100.00;103370.94;4928967;28;20308;-76
2024/01/31 02:58:15;;;;;;;14.23;4.53;;;;;;;7.02;100.00;103369.97;4925560;28;20107;-77
2024/01/31 03:00:40;;;;;;;7.35;4.28;;;;;;;7.00;100.00;103377.09;4929070;28;20038;-76
2024/01/31 03:03:06;;;;;;;9.10;4.55;;;;;;;7.10;100.00;103370.81;4929963;28;20067;-75
2024/01/31 03:05:31;;;;;;;10.95;4.60;;;;;;;7.06;100.00;103370.84;4924291;28;20444;-75
2024/01/31 03:07:57;;;;;;;14.93;4.97;;;;;;;7.11;100.00;103372.56;4928313;28;20055;-76
2024/01/31 03:10:23;;;;;;;8.75;3.97;;;;;;;7.04;100.00;103368.22;4924822;28;20590;-78
2024/01/31 03:12:48;;;;;;;12.20;4.40;;;;;;;7.06;100.00;103365.53;4927512;28;20044;-76
2024/01/31 03:15:14;;;;;;;13.75;4.63;;;;;;;6.95;100.00;103357.69;4925999;28;20027;-75
2024/01/31 03:17:39;;;;;;;12.45;4.78;;;;;;;7.01;100.00;103347.88;4929685;28;20518;-75
2024/01/31 03:20:06;;;;;;;13.23;5.40;;;;;;;6.82;100.00;103345.38;4930373;28;20102;-74
2024/01/31 03:22:32;;;;;;;11.32;4.22;;;;;;;6.92;100.00;103336.47;4926987;28;20044;-76
2024/01/31 03:24:57;;;;;;;19.85;5.25;;;;;;;6.85;100.00;103330.34;4927298;28;20141;-77
2024/01/31 03:27:23;;;;;;;11.27;5.10;;;;;;;6.89;100.00;103331.19;4924431;28;20036;-78
2024/01/31 03:29:49;;;;;;;14.43;5.28;;;;;;;6.94;100.00;103321.44;4924895;28;20147;-77
2024/01/31 03:32:14;;;;;;;15.68;5.60;;;;;;;6.89;100.00;103317.94;4931557;28;20376;-78
2024/01/31 03:34:39;;;;;;;19.08;6.03;;;;;;;6.96;100.00;103325.81;4924983;28;20880;-76
2024/01/31 03:37:05;;;;;;;23.05;6.20;;;;;;;6.86;100.00;103333.88;4926203;28;20036;-77
2024/01/31 03:39:32;;;;;;;17.95;5.10;;;;;;;6.84;100.00;103331.22;4927382;28;20044;-77
2024/01/31 03:41:58;;;;;;;14.65;5.03;;;;;;;6.77;100.00;103332.16;4925188;28;20291;-77
2024/01/31 03:44:24;;;;;;;12.10;4.97;;;;;;;6.75;100.00;103340.13;4926103;28;20155;-76
2024/01/31 03:46:49;;;;;;;15.93;5.38;;;;;;;6.80;100.00;103336.56;4932029;28;20654;-76
2024/01/31 03:49:15;;;;;;;14.10;6.07;;;;;;;6.80;100.00;103339.22;4925596;28;22119;-76
2024/01/31 03:51:40;;;;;;;20.15;5.43;;;;;;;6.82;100.00;103333.00;4924961;28;20051;-75
2024/01/31 03:54:06;;;;;;;11.90;5.07;;;;;;;6.87;100.00;103328.53;4927100;28;20504;-75
2024/01/31 03:56:31;;;;;;;11.02;5.13;;;;;;;6.94;100.00;103330.28;4928379;28;20051;-75
2024/01/31 03:58:56;;;;;;;11.48;4.85;;;;;;;6.86;100.00;103326.78;4910087;28;20374;-76
2024/01/31 04:01:22;;;;;;;17.35;4.80;;;;;;;6.93;100.00;103325.88;4907626;28;20104;-76
2024/01/31 04:03:48;;;;;;;15.98;5.47;;;;;;;6.83;100.00;103333.88;4904525;28;20028;-76
2024/01/31 04:06:14;;;;;;;11.55;4.68;;;;;;;6.94;100.00;103327.63;4907463;28;20092;-76
2024/01/31 04:08:39;;;;;;;18.70;4.95;;;;;;;6.94;100.00;103319.66;4893823;29;20083;-78
2024/01/31 04:11:05;;;;;;;13.20;4.75;;;;;;;6.81;100.00;103327.72;4906667;28;20872;-77
2024/01/31 04:13:30;;;;;;;14.50;5.10;;;;;;;6.80;100.00;103320.66;4905377;28;20436;-77
2024/01/31 04:15:57;;;;;;;19.05;5.78;;;;;;;6.73;100.00;103319.84;4904058;28;20124;-78
2024/01/31 04:18:23;;;;;;;14.77;5.13;;;;;;;6.85;100.00;103309.13;4903932;28;20432;-77
2024/01/31 04:20:49;;;;;;;15.98;5.45;;;;;;;6.70;100.00;103309.25;4908846;28;20063;-78
2024/01/31 04:23:15;;;;;;;12.68;4.60;;;;;;;6.75;100.00;103313.63;4886659;28;20037;-77
2024/01/31 04:25:40;;;;;;;14.30;5.38;;;;;;;6.65;100.00;103311.03;4908229;28;20051;-76
2024/01/31 04:28:06;;;;;;;10.95;5.05;;;;;;;6.51;100.00;103308.50;4904931;28;20514;-76
2024/01/31 04:30:32;;;;;;;13.57;5.10;;;;;;;6.69;100.00;103313.66;4904349;28;20035;-76
2024/01/31 04:33:01;;;;;;;18.52;6.10;;;;;;;6.68;100.00;103321.66;4907944;28;20037;-77
2024/01/31 04:35:26;;;;;;;13.55;6.10;;;;;;;6.79;100.00;103309.19;4908764;29;20035;-77
2024/01/31 04:37:52;;;;;;;15.45;6.13;;;;;;;6.84;100.00;103317.09;4909030;28;20469;-77
2024/01/31 04:40:17;;;;;;;14.25;6.43;;;;;;;6.80;100.00;103320.66;4903291;28;20464;-77
2024/01/31 04:42:44;;;;;;;11.30;5.32;;;;;;;6.64;100.00;103318.13;4909152;28;20381;-76
2024/01/31 04:45:10;;;;;;;16.98;5.70;;;;;;;6.74;100.00;103316.28;4904629;28;20032;-77
2024/01/31 04:47:37;;;;;;;16.25;6.10;;;;;;;6.79;100.00;103316.25;4906829;28;20047;-76
2024/01/31 04:50:03;;;;;;;13.38;5.75;;;;;;;6.90;100.00;103309.97;4905335;28;20638;-77
2024/01/31 04:52:28;;;;;;;23.13;7.10;;;;;;;6.75;100.00;103313.63;4906462;28;20033;-76
2024/01/31 04:54:55;;;;;;;21.52;6.63;;;;;;;6.86;100.00;103316.19;4897159;28;20527;-76
2024/01/31 04:57:21;;;;;;;15.90;6.35;;;;;;;6.83;100.00;103310.91;4899410;28;20139;-77
2024/01/31 04:59:46;;;;;;;21.00;6.85;;;;;;;6.78;100.00;103306.50;4927050;28;20092;-77
2024/01/31 05:02:12;;;;;;;15.70;6.30;;;;;;;6.85;100.00;103306.47;4925352;28;20076;-77
2024/01/31 05:04:39;;;;;;;18.83;6.85;;;;;;;6.83;100.00;103307.34;4930130;28;20036;-76
2024/01/31 05:07:05;;;;;;;23.25;6.45;;;;;;;6.64;100.00;103306.66;4925937;28;20126;-77
2024/01/31 05:09:31;;;;;;;12.95;6.55;;;;;;;6.83;100.00;103310.91;4922210;28;20052;-77
2024/01/31 05:11:56;;;;;;;17.10;5.60;;;;;;;6.77;100.00;103313.59;4920376;28;20044;-77
2024/01/31 05:14:22;;;;;;;17.95;6.15;;;;;;;6.88;100.00;103303.81;4922566;28;20031;-77
2024/01/31 05:16:48;;;;;;;17.58;6.20;;;;;;;6.69;100.00;103312.78;4930551;28;20051;-75
2024/01/31 05:19:14;;;;;;;15.77;5.93;;;;;;;6.74;100.00;103316.28;4925161;28;20040;-75
2024/01/31 05:21:50;;;;;;;17.73;6.03;;;;;;;6.84;100.00;103315.31;4925199;28;20036;-78
2024/01/31 05:24:17;;;;;;;15.60;5.95;;;;;;;6.82;100.00;103319.75;4925848;28;20496;-75
2024/01/31 05:26:43;;;;;;;21.02;6.28;;;;;;;6.85;100.00;103318.84;4927127;28;20158;-75
2024/01/31 05:29:10;;;;;;;10.77;5.43;;;;;;;6.93;100.00;103315.25;4924130;28;20071;-76
2024/01/31 05:31:35;;;;;;;14.02;5.93;;;;;;;6.93;100.00;103309.94;4927796;28;20039;-76
2024/01/31 05:34:01;;;;;;;13.90;5.90;;;;;;;6.98;100.00;103318.75;4924983;28;20039;-76
2024/01/31 05:36:27;;;;;;;13.63;5.40;;;;;;;6.96;100.00;103317.88;4924806;28;20043;-77
2024/01/31 05:38:52;;;;;;;9.93;5.03;;;;;;;6.94;100.00;103313.47;4929387;28;20051;-77
2024/01/31 05:41:18;;;;;;;17.08;6.07;;;;;;;6.86;100.00;103321.47;4924995;28;20055;-77
2024/01/31 05:43:45;;;;;;;18.55;8.77;;;;;;;6.85;100.00;103322.38;4923926;28;20048;-77
2024/01/31 05:46:10;;;;;;;14.55;6.00;;;;;;;6.94;100.00;103319.66;4924335;28;20050;-76
2024/01/31 05:48:36;;;;;;;12.80;5.63;;;;;;;6.94;100.00;103322.31;4923130;28;20055;-78
2024/01/31 05:51:02;;;;;;;17.00;5.88;;;;;;;6.82;100.00;103310.91;4923704;28;20035;-77
2024/01/31 05:53:27;;;;;;;11.50;5.38;;;;;;;6.88;100.00;103313.53;4928723;28;20031;-77
2024/01/31 05:55:52;;;;;;;14.30;5.65;;;;;;;6.79;100.00;103309.19;4933672;28;20095;-77
2024/01/31 05:58:18;;;;;;;16.08;6.10;;;;;;;6.81;100.00;103302.06;4930474;28;20055;-74
2024/01/31 06:00:48;;;;;;;11.05;5.35;;;;;;;6.82;100.00;103298.53;4930017;28;20031;-78
2024/01/31 06:03:15;;;;;;;10.88;5.53;;;;;;;6.79;100.00;103297.69;4930144;28;20040;-75
2024/01/31 06:05:41;;;;;;;11.23;4.45;;;;;;;6.80;100.00;103302.97;4932529;28;21171;-75
2024/01/31 06:08:07;;;;;;;8.13;4.32;;;;;;;6.77;100.00;103294.16;4928160;28;20044;-76
2024/01/31 06:10:32;;;;;;;10.50;4.57;;;;;;;6.62;100.00;103303.97;4931455;28;20029;-75
2024/01/31 06:12:58;;;;;;;10.77;3.95;;;;;;;6.56;100.00;103304.03;4928917;28;20035;-75
2024/01/31 06:15:25;;;;;;;10.32;3.92;;;;;;;6.70;100.00;103307.47;4924003;28;20039;-75
2024/01/31 06:17:51;;;;;;;13.85;4.03;;;;;;;6.72;100.00;103296.84;4929769;28;20470;-75
2024/01/31 06:20:17;;;;;;;11.95;4.15;;;;;;;6.61;100.00;103288.09;4930827;28;20035;-76
2024/01/31 06:22:42;;;;;;;12.07;4.35;;;;;;;6.71;100.00;103277.41;4927093;28;20067;-74
2024/01/31 06:25:08;;;;;;;10.20;3.55;;;;;;;6.72;100.00;103275.63;4925801;28;20039;-76
2024/01/31 06:27:36;;;;;;;15.95;4.93;;;;;;;6.66;100.00;103273.03;4925753;28;20040;-75
2024/01/31 06:30:03;;;;;;;13.43;4.82;;;;;;;6.69;100.00;103275.69;4930878;28;20044;-75
2024/01/31 06:32:34;;;;;;;9.73;3.92;;;;;;;6.69;100.00;103273.03;4926383;28;20036;-75
2024/01/31 06:34:59;;;;;;;8.52;3.72;;;;;;;6.76;100.00;103280.03;4928716;28;20032;-76
2024/01/31 06:37:26;;;;;;;11.27;3.90;;;;;;;6.71;100.00;103273.88;4923138;28;20087;-76
2024/01/31 06:39:52;;;;;;;9.05;3.83;;;;;;;6.58;100.00;103270.47;4931529;28;20119;-75
2024/01/31 06:42:18;;;;;;;15.18;5.00;;;;;;;6.69;100.00;103263.28;4923548;28;20032;-75
2024/01/31 06:44:43;;;;;;;10.55;3.67;;;;;;;6.64;100.00;103259.81;4928769;28;20031;-75
2024/01/31 06:47:09;;;;;;;10.35;3.45;;;;;;;6.63;100.00;103247.44;4931129;28;20145;-77
2024/01/31 06:49:34;;;;;;;7.43;3.65;;;;;;;6.62;100.00;103247.44;4929604;28;20633;-75
2024/01/31 06:52:00;;;;;;;9.68;4.05;;;;;;;6.65;100.00;103252.72;4925392;28;20036;-76
2024/01/31 06:54:25;;;;;;;18.02;4.18;;;;;;;6.72;100.00;103243.81;4922607;28;20080;-75
2024/01/31 06:56:51;;;;;;;30.30;6.47;;;;;;;6.63;100.00;103246.56;4930425;28;20066;-75
2024/01/31 06:59:16;;;;;;;13.90;4.47;;;;;;;6.56;100.00;103258.97;4925145;28;20101;-75
2024/01/31 07:01:42;;;;;;;14.25;4.82;;;;;;;6.68;100.00;103258.00;4928863;28;20047;-75
2024/01/31 07:04:08;;;;;;;16.35;5.80;;;;;;;6.69;100.00;103262.41;4924754;28;20111;-74
2024/01/31 07:06:33;;;;;;;7.72;4.63;;;;;;;6.60;100.00;103276.63;4923489;28;20424;-75
2024/01/31 07:08:59;;;;;;;14.18;5.47;;;;;;;6.62;100.00;103279.25;4929579;28;20039;-76
2024/01/31 07:11:24;;;;;;;7.88;4.82;;;;;;;6.63;100.00;103287.22;4926946;28;20035;-75
2024/01/31 07:13:50;;;;;;;23.70;7.68;;;;;;;6.61;100.00;103296.94;4916487;28;20133;-75
2024/01/31 07:16:15;;;;;;;24.13;7.28;;;;;;;6.64;100.00;103317.25;4921873;28;20067;-75
2024/01/31 07:18:43;;;;;;;14.20;6.53;;;;;;;6.67;100.00;103325.16;4924756;28;20444;-75
2024/01/31 07:21:09;;;;;;;11.77;6.28;;;;;;;6.68;100.00;103325.16;4925353;28;20043;-75
2024/01/31 07:23:36;;;;;;;23.02;7.43;;;;;;;6.58;100.00;103330.56;4926445;28;20198;-77
2024/01/31 07:26:01;;;;;;;20.55;6.78;;;;;;;6.68;100.00;103329.59;4925686;28;20028;-77
2024/01/31 07:28:27;;;;;;;17.38;7.30;;;;;;;6.65;100.00;103337.56;4930858;28;20519;-78
2024/01/31 07:30:52;;;;;;;35.53;8.55;;;;;;;6.67;100.00;103343.72;4927138;28;20040;-76
2024/01/31 07:33:19;;;;;;;21.50;7.38;;;;;;;6.72;100.00;103353.41;4926366;28;20040;-76
2024/01/31 07:35:44;;;;;;;13.40;6.97;;;;;;;6.70;100.00;103347.25;4923732;28;20104;-78
2024/01/31 07:38:10;;;;;;;13.80;6.78;;;;;;;6.74;100.00;103361.38;4927256;28;20035;-76
2024/01/31 07:40:37;;;;;;;14.65;7.05;;;;;;;6.71;100.00;103366.69;4920924;28;20043;-77
2024/01/31 07:43:03;;;;;;;21.33;6.90;;;;;;;6.70;100.00;103362.28;4941744;28;20042;-76
2024/01/31 07:45:28;;;;;;;16.48;7.07;;;;;;;6.64;100.00;103371.16;4923413;28;20090;-76
2024/01/31 07:47:54;;;;;;;18.90;6.90;;;;;;;6.62;100.00;103369.38;4924770;28;20495;-77
2024/01/31 07:50:19;;;;;;;14.50;5.90;;;;;;;6.83;100.00;103371.91;4928588;28;20590;-77
2024/01/31 07:52:45;;;;;;;14.93;5.97;;;;;;;6.83;100.00;103376.31;4931092;28;20050;-77
2024/01/31 07:55:11;;;;;;;18.55;7.38;;;;;;;6.89;100.00;103371.88;4924341;28;20032;-77
2024/01/31 07:57:36;;;;;;;19.38;8.07;;;;;;;6.85;100.00;103383.38;4924398;28;21009;-76
2024/01/31 08:00:06;;;;;;;12.27;6.00;;;;;;;6.84;100.00;103380.75;4928814;28;20143;-76
2024/01/31 08:02:31;;;;;;;14.48;5.75;;;;;;;6.93;100.00;103375.38;4923685;28;20084;-77
2024/01/31 08:04:57;;;;;;;12.65;6.95;;;;;;;6.91;100.00;103372.72;4925461;28;20035;-76
2024/01/31 08:07:24;;;;;;;16.15;6.40;;;;;;;6.91;100.00;103374.50;4924312;28;20036;-77
2024/01/31 08:09:49;;;;;;;16.98;6.90;;;;;;;7.04;100.00;103370.88;4922349;28;20040;-76
2024/01/31 08:12:15;;;;;;;10.30;6.38;;;;;;;7.04;100.00;103376.19;4924110;28;20035;-76
2024/01/31 08:14:41;;;;;;;13.13;6.53;;;;;;;7.09;100.00;103376.13;4923304;28;20194;-77
2024/01/31 08:17:07;;;;;;;16.85;7.10;;;;;;;7.11;100.00;103371.69;4925631;28;20046;-74
2024/01/31 08:19:34;;;;;;;15.10;7.13;;;;;;;7.00;100.00;103367.34;4924233;28;20055;-78
2024/01/31 08:21:59;;;;;;;19.77;6.50;;;;;;;7.07;100.00;103354.03;4924700;28;20032;-77
2024/01/31 08:24:25;;;;;;;16.27;7.22;;;;;;;7.11;100.00;103350.47;4927053;28;20040;-77
2024/01/31 08:26:51;;;;;;;13.35;7.20;;;;;;;7.15;100.00;103347.78;4927131;28;20043;-77
2024/01/31 08:29:17;;;;;;;11.02;6.53;;;;;;;7.14;100.00;103343.38;4926108;28;20040;-77
2024/01/31 08:31:42;;;;;;;15.20;7.20;;;;;;;7.16;100.00;103340.69;4923907;28;20145;-77
2024/01/31 08:34:09;;;;;;;11.30;6.90;;;;;;;7.31;100.00;103344.97;4928617;28;20043;-77
2024/01/31 08:36:35;;;;;;;13.05;7.63;;;;;;;7.22;100.00;103346.81;4925492;28;20050;-76
2024/01/31 08:39:01;;;;;;;14.25;7.43;;;;;;;7.32;100.00;103352.03;4928090;28;20497;-76
2024/01/31 08:41:26;;;;;;;19.75;8.68;;;;;;;7.27;100.00;103346.78;4927154;28;20036;-75
2024/01/31 08:43:52;;;;;;;14.77;7.90;;;;;;;7.31;100.00;103353.81;4930173;28;20051;-74
2024/01/31 08:46:17;;;;;;;13.30;8.20;;;;;;;7.35;100.00;103344.06;4918674;28;20040;-74
2024/01/31 08:48:43;;;;;;;14.02;7.50;;;;;;;7.34;100.00;103347.63;4923677;28;20052;-77
2024/01/31 08:51:08;;;;;;;16.25;9.02;;;;;;;7.29;100.00;103334.38;4920887;28;20043;-75
2024/01/31 08:53:34;;;;;;;28.05;10.98;;;;;;;7.23;100.00;103337.97;4926461;28;20091;-76
2024/01/31 08:56:00;;;;;;;11.85;7.88;;;;;;;7.17;100.00;103334.47;4921082;28;20124;-77
2024/01/31 08:58:26;;;;;;;15.93;8.55;;;;;;;7.17;100.00;103315.91;4921274;28;20040;-77
2024/01/31 09:00:51;;;;;;;14.13;7.88;;;;;;;7.25;100.00;103320.25;4918336;28;20177;-77
2024/01/31 09:03:17;;;;;;;13.98;8.27;;;;;;;7.36;100.00;103321.94;4920866;28;20579;-75
2024/01/31 09:05:43;;;;;;;9.82;7.93;;;;;;;7.32;100.00;103317.53;4926120;28;20059;-77
2024/01/31 09:08:16;;;;;;;17.77;9.50;;;;;;;7.43;100.00;103313.00;4924935;28;20051;-75
2024/01/31 09:10:41;;;;;;;12.60;8.15;;;;;;;7.51;100.00;103309.38;4922772;28;20130;-76
2024/01/31 09:13:07;;;;;;;14.98;9.43;;;;;;;7.38;100.00;103302.47;4923291;28;20110;-75
2024/01/31 09:15:32;;;;;;;19.70;9.00;;;;;;;7.46;100.00;103305.88;4922771;28;20051;-76
2024/01/31 09:17:58;;;;;;;18.02;8.05;;;;;;;7.57;100.00;103296.94;4920728;28;20048;-77
2024/01/31 09:20:23;;;;;;;22.17;9.57;;;;;;;7.64;100.00;103293.31;4926421;28;20032;-77
2024/01/31 09:22:49;;;;;;;13.13;9.18;;;;;;;7.70;100.00;103287.94;4924617;28;20046;-77
2024/01/31 09:25:15;;;;;;;18.38;10.98;;;;;;;7.71;100.00;103285.25;4908545;28;20116;-76
2024/01/31 09:27:41;;;;;;;20.05;11.15;;;;;;;7.78;100.00;103272.75;4923254;28;20301;-75
2024/01/31 09:30:07;;;;;;;17.90;11.23;;;;;;;7.83;100.00;103265.66;4926485;28;20104;-75
2024/01/31 09:32:33;;;;;;;20.15;10.88;;;;;;;7.98;100.00;103268.09;4930018;28;20036;-75
2024/01/31 09:34:59;;;;;;;20.30;11.18;;;;;;;7.75;100.00;103278.13;4929178;28;20032;-75
2024/01/31 09:37:24;;;;;;;21.65;11.15;;;;;;;7.82;100.00;103274.47;4926532;28;20036;-75
2024/01/31 09:39:54;;;;;;;22.50;11.50;;;;;;;7.77;100.00;103284.28;4926530;28;20095;-76
2024/01/31 09:42:19;;;;;;;20.40;11.70;;;;;;;7.82;100.00;103281.56;4927009;28;20036;-75
2024/01/31 09:44:45;;;;;;;23.45;11.68;;;;;;;7.97;100.00;103284.03;4926152;28;20044;-75
2024/01/31 09:47:12;;;;;;;19.55;10.88;;;;;;;8.13;100.00;103285.56;4930061;28;20448;-77
2024/01/31 09:49:38;;;;;;;21.65;10.60;;;;;;;8.17;100.00;103278.44;4926087;28;20083;-77
2024/01/31 09:52:05;;;;;;;24.40;11.15;;;;;;;8.06;100.00;103262.66;4924161;28;20852;-75
2024/01/31 09:54:31;;;;;;;20.52;10.52;;;;;;;8.27;100.00;103261.47;4927234;28;20031;-76
2024/01/31 09:56:57;;;;;;;24.77;10.63;;;;;;;8.35;100.00;103248.06;4926357;28;20772;-75
2024/01/31 09:59:25;;;;;;;22.17;10.95;;;;;;;8.48;100.00;103247.00;4925221;28;20036;-75
2024/01/31 10:01:52;;;;;;;20.50;10.85;;;;;;;8.64;100.00;103255.63;4929377;28;20044;-76
2024/01/31 10:04:18;;;;;;;18.20;9.30;;;;;;;8.34;100.00;103252.53;4924115;28;20119;-75
2024/01/31 10:06:44;;;;;;;22.98;9.55;;;;;;;8.63;100.00;103245.88;4926698;28;20044;-76
2024/01/31 10:09:10;;;;;;;17.20;9.07;;;;;;;8.71;100.00;103254.63;4923429;28;20045;-75
2024/01/31 10:11:36;;;;;;;22.95;10.43;;;;;;;8.69;100.00;103254.66;4932407;28;20031;-76
2024/01/31 10:14:02;;;;;;;17.92;10.88;;;;;;;8.75;100.00;103256.31;4927681;28;20063;-76
2024/01/31 10:16:27;;;;;;;24.80;11.73;;;;;;;8.85;100.00;103262.38;4923646;28;20035;-77
2024/01/31 10:18:54;;;;;;;22.58;10.65;;;;;;;8.89;100.00;103262.28;4922706;28;20104;-77
2024/01/31 10:21:19;;;;;;;22.75;9.65;;;;;;;8.87;100.00;103263.22;4921323;28;20039;-77
2024/01/31 10:23:58;;;;;;;29.95;11.23;;;;;;;8.98;100.00;103269.22;4925125;28;20456;-77
2024/01/31 10:26:27;;;;;;;24.52;11.00;;;;;;;9.06;100.00;103267.31;4929082;28;20070;-77
2024/01/31 10:28:53;;;;;;;21.20;11.13;;;;;;;8.99;100.00;103265.66;4928556;28;20134;-76
2024/01/31 10:31:19;;;;;;;31.50;12.77;;;;;;;8.80;100.00;103265.97;4923816;28;20040;-75
2024/01/31 10:33:45;;;;;;;22.52;11.20;;;;;;;8.87;100.00;103255.22;4929823;28;20519;-76
2024/01/31 10:36:10;;;;;;;27.67;11.63;;;;;;;8.86;100.00;103256.13;4923635;28;20054;-76
2024/01/31 10:38:38;;;;;;;22.33;10.80;;;;;;;8.64;100.00;103261.81;4927926;28;20032;-76
2024/01/31 10:41:06;;;;;;;27.17;12.23;;;;;;;8.73;100.00;103256.31;4927724;28;20120;-76
2024/01/31 10:43:32;;;;;;;33.83;11.40;;;;;;;8.70;100.00;103261.72;4913670;28;20040;-77
2024/01/31 10:45:58;;;;;;;30.15;11.75;;;;;;;8.56;100.00;103259.28;4925144;28;20102;-77
2024/01/31 10:48:24;;;;;;;24.52;12.10;;;;;;;8.61;100.00;103259.22;4925695;28;20045;-76
2024/01/31 10:50:52;;;;;;;32.03;12.38;;;;;;;8.62;100.00;103252.09;4921820;28;20036;-77
2024/01/31 10:53:19;;;;;;;29.75;12.57;;;;;;;8.66;100.00;103249.38;4927044;28;20183;-77
2024/01/31 10:55:46;;;;;;;29.45;12.38;;;;;;;8.86;100.00;103248.16;4930351;28;20066;-77
2024/01/31 10:58:12;;;;;;;27.85;12.73;;;;;;;8.73;100.00;103245.69;4929315;28;20055;-77
2024/01/31 11:00:46;;;;;;;26.83;13.85;;;;;;;8.86;100.00;103248.16;4924556;28;21121;-76
2024/01/31 11:03:16;;;;;;;32.00;14.52;;;;;;;8.55;100.00;103246.00;4927855;28;20044;-76
2024/01/31 11:05:42;;;;;;;29.13;14.82;;;;;;;8.69;100.00;103251.13;4944059;28;20044;-76
2024/01/31 11:08:21;;;;;;;31.02;16.25;;;;;;;8.72;100.00;103235.09;4926573;28;20083;-76
2024/01/31 11:10:48;;;;;;;36.45;16.92;;;;;;;8.82;100.00;103226.91;4924171;28;20040;-75